Pagrindinis puslapis
METAR-TAF:

METAR-TAF

Oro uostai :

Bukareštas, Rumunija

platuma: 44-33N, ilguma: 026-06E, Aukštis: 95 m

Dabartinis oras

Ataskaita buvo paskelbta 17 minutes, ne 11:30 UTC
Vėjas 6 kt iš Vakarų
Temperatūra 12°C
Drėgmė 94%
Slėgis 1021 hPa
Matomumas 10 km arba daugiau
Mažai debesys ne aukštis 900 ft

METAR: LROP 171130Z 26006KT 9999 FEW009 12/11 Q1021 NOSIG

Laikas: 14:47 (11:47 UTC)

Prognozė

Ataskaita buvo paskelbta 47 minutes, ne 11:00 UTC
Prognozė galioja nuo 17 metu 12 UTC su 18 metu 12 UTC
Vėjas 6 kt iš Vakarų
Matomumas 10 km arba daugiau
nėra debesų žemiau 1500 m ir nėra kamuolinių lietaus debesų
Tapsmas
nuo 17 metu 23 UTC su 18 metu 01 UTC
Matomumas: 5000 m
rūkana
Tikimybė 40% :
Laikinai
nuo 18 metu 01 UTC su 18 metu 06 UTC
Matomumas: 1500 m
Su prošvaistėmis ne aukštis 200 ft
rūkana
Tapsmas
nuo 18 metu 06 UTC su 18 metu 08 UTC
Matomumas 10 km arba daugiau

TAF: LROP 171100Z 1712/1812 26006KT CAVOK BECMG 1723/1801 5000 BR PROB40 TEMPO 1801/1806 1500 BR BKN002 BECMG 1806/1808 9999 NSW

Orai ataskaitas ir orų prognozės (METAR, TAF).

turimą stotys yra geltonos ir raudonos taškus žemėlapyje.

Perkelti pele per norėdami pamatyti stoties vardą.

Tada spustelėkite, norėdami matyti oro stebėjimo ir prognozės.

Norėdami pakeisti žemėlapį: spustelėkite ant žalios mygtukų su juodo kryžiaus žemyn,; žalią mygtuką su brūkšneliu, jei norite nutolinti; arba žalių rodyklių gretimoms žemėlapius.


METAR-TAF: